Zim Pacific — A8OZ4 — position and weather

sailwx.info

Track history (hours):
 
Tides and Currents Weather Stations Pressure Air Temp Water Temp Dewpoint Dewpoint Depression Visibility Wind Speed Wind Dir Waves Ship Positions

Zim Pacific

Last reported at 2015-Jul-02 03:29 UTC. Time now 2015-Jul-05 14:59 UTC.
Position N 01°11' E 103°39'.

Length 254 m; draft 10.2 m.

Type: Ship. MMSI: 636016512.

Date/timePositionNaut miles runAvg speedWind from/ knotsBaromVisibWave heightAir tempDewpointWater temp
2015-Jul-02 03:29N 01°11' E 103°39'1414.7
2015-Jul-02 02:34N 01°12' E 103°53'1616.0
2015-Jul-02 01:34N 01°16' E 104°08'  
2015-Jun-28 14:12N 21°59' E 114°21'2213.0
2015-Jun-28 12:29N 22°17' E 114°06'1311.5
2015-Jun-28 11:21N 22°23' E 113°54'6 0.3
2015-Jun-27 15:06N 22°29' E 113°52'5 9.2
2015-Jun-27 14:33N 22°24' E 113°54'11 8.7
2015-Jun-27 13:17N 22°20' E 114°05'1310.4
2015-Jun-27 12:03N 22°10' E 114°13'612.8
2015-Jun-27 11:34N 22°09' E 114°20'  
2015-Jun-24 05:32N 01°14' E 103°58'  
Track history (hours):
 
Tides and Currents Weather Stations Pressure Air Temp Water Temp Dewpoint Dewpoint Depression Visibility Wind Speed Wind Dir Waves Ship Positions

Zim Pacific

Last reported at 2015-Jul-02 03:29 UTC. Time now 2015-Jul-05 14:59 UTC.
Position N 01°11' E 103°39'.

Length 254 m; draft 10.2 m.

Type: Ship. MMSI: 636016512.

Date/timePositionNaut miles runAvg speedWind from/ knotsBaromVisibWave heightAir tempDewpointWater temp
2015-Jul-02 03:29N 01°11' E 103°39'1414.7
2015-Jul-02 02:34N 01°12' E 103°53'1616.0
2015-Jul-02 01:34N 01°16' E 104°08'  
2015-Jun-28 14:12N 21°59' E 114°21'2213.0
2015-Jun-28 12:29N 22°17' E 114°06'1311.5
2015-Jun-28 11:21N 22°23' E 113°54'6 0.3
2015-Jun-27 15:06N 22°29' E 113°52'5 9.2
2015-Jun-27 14:33N 22°24' E 113°54'11 8.7
2015-Jun-27 13:17N 22°20' E 114°05'1310.4
2015-Jun-27 12:03N 22°10' E 114°13'612.8
2015-Jun-27 11:34N 22°09' E 114°20'  
2015-Jun-24 05:32N 01°14' E 103°58'  

Dump ship's entire track history